sensor_id;sensor_type;location;lat;lon;timestamp;P1;durP1;ratioP1;P2;durP2;ratioP2
43962;SDS011;29622;45.534;9.242;2023-06-10T00:01:01;10.05;;;4.13;;
43962;SDS011;29622;45.534;9.242;2023-06-10T00:06:02;6.15;;;4.15;;
43962;SDS011;29622;45.534;9.242;2023-06-10T00:11:06;8.93;;;4.15;;
43962;SDS011;29622;45.534;9.242;2023-06-10T00:16:07;12.63;;;4.30;;
43962;SDS011;29622;45.534;9.242;2023-06-10T00:21:08;11.15;;;5.13;;
43962;SDS011;29622;45.534;9.242;2023-06-10T00:26:09;9.88;;;3.80;;
43962;SDS011;29622;45.534;9.242;2023-06-10T00:31:10;12.20;;;4.53;;
43962;SDS011;29622;45.534;9.242;2023-06-10T00:36:12;7.13;;;3.17;;
43962;SDS011;29622;45.534;9.242;2023-06-10T00:41:13;7.32;;;3.40;;
43962;SDS011;29622;45.534;9.242;2023-06-10T00:46:14;7.53;;;2.80;;
43962;SDS011;29622;45.534;9.242;2023-06-10T00:51:16;7.10;;;3.25;;
43962;SDS011;29622;45.534;9.242;2023-06-10T00:56:18;7.22;;;2.78;;
43962;SDS011;29622;45.534;9.242;2023-06-10T01:01:20;7.05;;;2.70;;
43962;SDS011;29622;45.534;9.242;2023-06-10T01:11:23;8.73;;;2.97;;
43962;SDS011;29622;45.534;9.242;2023-06-10T01:16:30;5.20;;;2.65;;
43962;SDS011;29622;45.534;9.242;2023-06-10T01:21:31;11.00;;;2.58;;
43962;SDS011;29622;45.534;9.242;2023-06-10T01:26:32;7.28;;;2.65;;
43962;SDS011;29622;45.534;9.242;2023-06-10T01:37:17;11.80;;;3.00;;
43962;SDS011;29622;45.534;9.242;2023-06-10T01:42:20;7.72;;;2.47;;
43962;SDS011;29622;45.534;9.242;2023-06-10T01:47:22;10.95;;;2.47;;
43962;SDS011;29622;45.534;9.242;2023-06-10T01:52:23;9.25;;;2.50;;
43962;SDS011;29622;45.534;9.242;2023-06-10T01:57:23;7.20;;;2.17;;
43962;SDS011;29622;45.534;9.242;2023-06-10T02:02:24;5.60;;;2.55;;
43962;SDS011;29622;45.534;9.242;2023-06-10T02:07:25;9.52;;;3.13;;
43962;SDS011;29622;45.534;9.242;2023-06-10T02:12:26;7.43;;;3.03;;
43962;SDS011;29622;45.534;9.242;2023-06-10T02:17:27;6.32;;;2.63;;
43962;SDS011;29622;45.534;9.242;2023-06-10T02:22:28;6.90;;;3.10;;
43962;SDS011;29622;45.534;9.242;2023-06-10T02:27:29;6.63;;;2.53;;
43962;SDS011;29622;45.534;9.242;2023-06-10T02:32:42;6.90;;;3.08;;
43962;SDS011;29622;45.534;9.242;2023-06-10T02:37:48;6.18;;;2.45;;
43962;SDS011;29622;45.534;9.242;2023-06-10T02:43:02;8.60;;;2.83;;
43962;SDS011;29622;45.534;9.242;2023-06-10T02:48:25;8.88;;;2.70;;
43962;SDS011;29622;45.534;9.242;2023-06-10T02:53:48;9.77;;;3.05;;
43962;SDS011;29622;45.534;9.242;2023-06-10T02:58:52;11.70;;;3.20;;
43962;SDS011;29622;45.534;9.242;2023-06-10T03:09:34;8.38;;;2.80;;
43962;SDS011;29622;45.534;9.242;2023-06-10T03:15:08;6.82;;;3.50;;
43962;SDS011;29622;45.534;9.242;2023-06-10T03:20:14;11.73;;;3.42;;
43962;SDS011;29622;45.534;9.242;2023-06-10T03:25:19;7.72;;;2.33;;
43962;SDS011;29622;45.534;9.242;2023-06-10T03:30:24;6.72;;;2.88;;
43962;SDS011;29622;45.534;9.242;2023-06-10T03:35:25;9.32;;;2.70;;
43962;SDS011;29622;45.534;9.242;2023-06-10T03:40:27;6.95;;;4.15;;
43962;SDS011;29622;45.534;9.242;2023-06-10T03:45:28;9.85;;;3.53;;
43962;SDS011;29622;45.534;9.242;2023-06-10T03:50:31;8.32;;;3.95;;
43962;SDS011;29622;45.534;9.242;2023-06-10T03:55:32;7.75;;;4.03;;
43962;SDS011;29622;45.534;9.242;2023-06-10T04:00:34;10.05;;;4.00;;
43962;SDS011;29622;45.534;9.242;2023-06-10T04:05:50;9.97;;;3.47;;
43962;SDS011;29622;45.534;9.242;2023-06-10T04:11:09;7.95;;;3.13;;
43962;SDS011;29622;45.534;9.242;2023-06-10T04:16:10;6.88;;;3.35;;
43962;SDS011;29622;45.534;9.242;2023-06-10T04:21:15;6.00;;;2.92;;
43962;SDS011;29622;45.534;9.242;2023-06-10T04:26:23;7.18;;;3.05;;
43962;SDS011;29622;45.534;9.242;2023-06-10T04:31:33;10.05;;;3.70;;
43962;SDS011;29622;45.534;9.242;2023-06-10T04:36:34;8.35;;;3.03;;
43962;SDS011;29622;45.534;9.242;2023-06-10T04:41:35;7.80;;;3.88;;
43962;SDS011;29622;45.534;9.242;2023-06-10T04:46:36;10.80;;;3.70;;
43962;SDS011;29622;45.534;9.242;2023-06-10T04:51:37;6.88;;;3.58;;
43962;SDS011;29622;45.534;9.242;2023-06-10T04:56:38;8.52;;;3.40;;
43962;SDS011;29622;45.534;9.242;2023-06-10T05:01:40;6.18;;;2.78;;
43962;SDS011;29622;45.534;9.242;2023-06-10T05:06:41;6.93;;;3.00;;
43962;SDS011;29622;45.534;9.242;2023-06-10T05:11:42;6.32;;;3.75;;
43962;SDS011;29622;45.534;9.242;2023-06-10T05:16:42;6.78;;;3.28;;
43962;SDS011;29622;45.534;9.242;2023-06-10T05:21:44;9.93;;;2.88;;
43962;SDS011;29622;45.534;9.242;2023-06-10T05:26:45;12.10;;;3.13;;
43962;SDS011;29622;45.534;9.242;2023-06-10T05:31:47;7.85;;;2.90;;
43962;SDS011;29622;45.534;9.242;2023-06-10T05:36:48;10.63;;;3.78;;
43962;SDS011;29622;45.534;9.242;2023-06-10T05:41:49;10.73;;;3.40;;
43962;SDS011;29622;45.534;9.242;2023-06-10T05:46:50;12.15;;;3.47;;
43962;SDS011;29622;45.534;9.242;2023-06-10T05:51:51;8.85;;;3.20;;
43962;SDS011;29622;45.534;9.242;2023-06-10T05:56:56;12.55;;;4.63;;
43962;SDS011;29622;45.534;9.242;2023-06-10T06:01:57;9.23;;;3.45;;
43962;SDS011;29622;45.534;9.242;2023-06-10T06:06:58;6.35;;;2.70;;
43962;SDS011;29622;45.534;9.242;2023-06-10T06:11:59;7.63;;;2.80;;
43962;SDS011;29622;45.534;9.242;2023-06-10T06:17:00;8.00;;;2.88;;
43962;SDS011;29622;45.534;9.242;2023-06-10T06:22:01;9.45;;;2.65;;
43962;SDS011;29622;45.534;9.242;2023-06-10T06:27:02;6.45;;;2.78;;
43962;SDS011;29622;45.534;9.242;2023-06-10T06:32:03;9.80;;;3.03;;
43962;SDS011;29622;45.534;9.242;2023-06-10T06:37:05;9.30;;;3.17;;
43962;SDS011;29622;45.534;9.242;2023-06-10T06:42:17;9.07;;;3.08;;
43962;SDS011;29622;45.534;9.242;2023-06-10T06:47:31;7.38;;;2.47;;
43962;SDS011;29622;45.534;9.242;2023-06-10T06:52:32;7.65;;;2.67;;
43962;SDS011;29622;45.534;9.242;2023-06-10T06:57:33;13.30;;;3.10;;
43962;SDS011;29622;45.534;9.242;2023-06-10T07:02:33;7.70;;;2.53;;
43962;SDS011;29622;45.534;9.242;2023-06-10T07:07:34;7.07;;;2.78;;
43962;SDS011;29622;45.534;9.242;2023-06-10T07:12:35;9.93;;;2.47;;
43962;SDS011;29622;45.534;9.242;2023-06-10T07:17:36;6.70;;;2.63;;
43962;SDS011;29622;45.534;9.242;2023-06-10T07:22:37;8.35;;;2.83;;
43962;SDS011;29622;45.534;9.242;2023-06-10T07:27:40;7.10;;;2.38;;
43962;SDS011;29622;45.534;9.242;2023-06-10T07:32:41;10.30;;;2.90;;
43962;SDS011;29622;45.534;9.242;2023-06-10T07:37:43;5.78;;;2.50;;
43962;SDS011;29622;45.534;9.242;2023-06-10T07:42:44;8.15;;;2.67;;
43962;SDS011;29622;45.534;9.242;2023-06-10T07:47:45;8.43;;;3.15;;
43962;SDS011;29622;45.534;9.242;2023-06-10T07:52:46;8.77;;;2.70;;
43962;SDS011;29622;45.534;9.242;2023-06-10T07:57:48;6.90;;;2.03;;
43962;SDS011;29622;45.534;9.242;2023-06-10T08:02:49;9.95;;;2.47;;
43962;SDS011;29622;45.534;9.242;2023-06-10T08:07:51;7.22;;;2.95;;
43962;SDS011;29622;45.534;9.242;2023-06-10T08:12:55;10.52;;;2.78;;
43962;SDS011;29622;45.534;9.242;2023-06-10T08:17:56;9.68;;;3.80;;
43962;SDS011;29622;45.534;9.242;2023-06-10T08:22:57;10.88;;;2.70;;
43962;SDS011;29622;45.534;9.242;2023-06-10T08:27:58;10.55;;;2.80;;
43962;SDS011;29622;45.534;9.242;2023-06-10T08:32:59;8.05;;;2.22;;
43962;SDS011;29622;45.534;9.242;2023-06-10T08:38:00;8.70;;;2.70;;
43962;SDS011;29622;45.534;9.242;2023-06-10T08:43:08;9.05;;;3.00;;
43962;SDS011;29622;45.534;9.242;2023-06-10T08:48:16;8.18;;;2.60;;
43962;SDS011;29622;45.534;9.242;2023-06-10T08:53:19;12.07;;;3.03;;
43962;SDS011;29622;45.534;9.242;2023-06-10T08:58:21;8.50;;;3.28;;
43962;SDS011;29622;45.534;9.242;2023-06-10T09:03:28;9.02;;;2.83;;
43962;SDS011;29622;45.534;9.242;2023-06-10T09:08:29;12.00;;;3.42;;
43962;SDS011;29622;45.534;9.242;2023-06-10T09:13:31;20.10;;;3.97;;
43962;SDS011;29622;45.534;9.242;2023-06-10T09:18:35;7.90;;;3.08;;
43962;SDS011;29622;45.534;9.242;2023-06-10T09:23:36;9.40;;;3.17;;
43962;SDS011;29622;45.534;9.242;2023-06-10T09:29:04;9.02;;;3.28;;
43962;SDS011;29622;45.534;9.242;2023-06-10T09:39:14;9.68;;;3.47;;
43962;SDS011;29622;45.534;9.242;2023-06-10T09:44:19;13.07;;;3.53;;
43962;SDS011;29622;45.534;9.242;2023-06-10T09:49:21;10.13;;;3.42;;
43962;SDS011;29622;45.534;9.242;2023-06-10T09:54:22;9.93;;;3.10;;
43962;SDS011;29622;45.534;9.242;2023-06-10T09:59:29;11.57;;;3.45;;
43962;SDS011;29622;45.534;9.242;2023-06-10T10:04:35;10.68;;;3.30;;
43962;SDS011;29622;45.534;9.242;2023-06-10T10:09:40;9.30;;;3.22;;
43962;SDS011;29622;45.534;9.242;2023-06-10T10:14:43;8.82;;;2.90;;
43962;SDS011;29622;45.534;9.242;2023-06-10T10:19:48;7.78;;;3.08;;
43962;SDS011;29622;45.534;9.242;2023-06-10T10:24:55;8.73;;;2.95;;
43962;SDS011;29622;45.534;9.242;2023-06-10T10:29:57;8.30;;;2.63;;
43962;SDS011;29622;45.534;9.242;2023-06-10T10:35:07;3.67;;;2.33;;
43962;SDS011;29622;45.534;9.242;2023-06-10T10:40:10;8.52;;;2.60;;
43962;SDS011;29622;45.534;9.242;2023-06-10T10:45:12;6.00;;;2.70;;
43962;SDS011;29622;45.534;9.242;2023-06-10T10:50:16;6.88;;;3.17;;
43962;SDS011;29622;45.534;9.242;2023-06-10T10:55:18;7.10;;;4.40;;
43962;SDS011;29622;45.534;9.242;2023-06-10T11:05:38;9.63;;;3.45;;
43962;SDS011;29622;45.534;9.242;2023-06-10T11:10:40;12.25;;;3.92;;
43962;SDS011;29622;45.534;9.242;2023-06-10T11:15:50;6.95;;;3.67;;
43962;SDS011;29622;45.534;9.242;2023-06-10T11:20:52;9.98;;;3.97;;
43962;SDS011;29622;45.534;9.242;2023-06-10T11:31:32;8.93;;;4.20;;
43962;SDS011;29622;45.534;9.242;2023-06-10T11:36:43;12.68;;;4.68;;
43962;SDS011;29622;45.534;9.242;2023-06-10T11:41:45;10.50;;;3.88;;
43962;SDS011;29622;45.534;9.242;2023-06-10T11:46:50;10.85;;;4.45;;
43962;SDS011;29622;45.534;9.242;2023-06-10T11:51:51;8.27;;;3.35;;
43962;SDS011;29622;45.534;9.242;2023-06-10T11:56:56;7.70;;;3.85;;
43962;SDS011;29622;45.534;9.242;2023-06-10T12:01:59;6.72;;;3.90;;
43962;SDS011;29622;45.534;9.242;2023-06-10T12:06:59;7.63;;;3.45;;
43962;SDS011;29622;45.534;9.242;2023-06-10T12:12:01;9.45;;;3.47;;
43962;SDS011;29622;45.534;9.242;2023-06-10T12:17:04;7.13;;;3.10;;
43962;SDS011;29622;45.534;9.242;2023-06-10T12:22:05;7.25;;;3.30;;
43962;SDS011;29622;45.534;9.242;2023-06-10T12:27:06;5.63;;;2.33;;
43962;SDS011;29622;45.534;9.242;2023-06-10T12:32:12;7.97;;;3.00;;
43962;SDS011;29622;45.534;9.242;2023-06-10T12:37:15;11.02;;;2.75;;
43962;SDS011;29622;45.534;9.242;2023-06-10T12:42:16;6.80;;;1.92;;
43962;SDS011;29622;45.534;9.242;2023-06-10T12:47:17;5.15;;;2.50;;
43962;SDS011;29622;45.534;9.242;2023-06-10T12:52:17;5.70;;;2.83;;
43962;SDS011;29622;45.534;9.242;2023-06-10T12:57:18;6.68;;;2.65;;
43962;SDS011;29622;45.534;9.242;2023-06-10T13:02:19;7.32;;;2.42;;
43962;SDS011;29622;45.534;9.242;2023-06-10T13:07:20;9.85;;;3.20;;
43962;SDS011;29622;45.534;9.242;2023-06-10T13:12:22;6.40;;;2.80;;
43962;SDS011;29622;45.534;9.242;2023-06-10T13:17:25;4.55;;;2.70;;
43962;SDS011;29622;45.534;9.242;2023-06-10T13:22:28;19.77;;;4.95;;
43962;SDS011;29622;45.534;9.242;2023-06-10T13:27:30;11.68;;;3.90;;
43962;SDS011;29622;45.534;9.242;2023-06-10T13:32:31;6.75;;;3.33;;
43962;SDS011;29622;45.534;9.242;2023-06-10T13:37:34;8.57;;;4.35;;
43962;SDS011;29622;45.534;9.242;2023-06-10T13:42:35;9.80;;;7.47;;
43962;SDS011;29622;45.534;9.242;2023-06-10T13:47:36;14.13;;;6.22;;
43962;SDS011;29622;45.534;9.242;2023-06-10T13:52:36;15.80;;;7.72;;
43962;SDS011;29622;45.534;9.242;2023-06-10T13:57:37;7.90;;;5.55;;
43962;SDS011;29622;45.534;9.242;2023-06-10T14:02:38;11.20;;;6.30;;
43962;SDS011;29622;45.534;9.242;2023-06-10T14:07:38;9.65;;;5.22;;
43962;SDS011;29622;45.534;9.242;2023-06-10T14:12:40;11.48;;;5.60;;
43962;SDS011;29622;45.534;9.242;2023-06-10T14:17:42;10.73;;;5.00;;
43962;SDS011;29622;45.534;9.242;2023-06-10T14:22:43;10.45;;;5.45;;
43962;SDS011;29622;45.534;9.242;2023-06-10T14:27:44;11.27;;;5.22;;
43962;SDS011;29622;45.534;9.242;2023-06-10T14:32:47;9.00;;;5.32;;
43962;SDS011;29622;45.534;9.242;2023-06-10T14:37:47;9.82;;;5.05;;
43962;SDS011;29622;45.534;9.242;2023-06-10T14:42:48;8.23;;;5.25;;
43962;SDS011;29622;45.534;9.242;2023-06-10T14:47:49;7.85;;;4.97;;
43962;SDS011;29622;45.534;9.242;2023-06-10T14:52:49;6.57;;;4.50;;
43962;SDS011;29622;45.534;9.242;2023-06-10T14:57:50;10.30;;;5.82;;
43962;SDS011;29622;45.534;9.242;2023-06-10T15:02:50;13.20;;;5.35;;
43962;SDS011;29622;45.534;9.242;2023-06-10T15:07:52;12.15;;;4.65;;
43962;SDS011;29622;45.534;9.242;2023-06-10T15:12:52;9.27;;;5.55;;
43962;SDS011;29622;45.534;9.242;2023-06-10T15:17:55;8.13;;;5.95;;
43962;SDS011;29622;45.534;9.242;2023-06-10T15:22:56;10.68;;;5.85;;
43962;SDS011;29622;45.534;9.242;2023-06-10T15:27:57;9.02;;;4.90;;
43962;SDS011;29622;45.534;9.242;2023-06-10T15:32:57;11.77;;;4.90;;
43962;SDS011;29622;45.534;9.242;2023-06-10T15:37:58;8.50;;;4.97;;
43962;SDS011;29622;45.534;9.242;2023-06-10T15:42:59;12.15;;;4.82;;
43962;SDS011;29622;45.534;9.242;2023-06-10T15:47:59;9.73;;;4.55;;
43962;SDS011;29622;45.534;9.242;2023-06-10T15:53:00;6.78;;;4.10;;
43962;SDS011;29622;45.534;9.242;2023-06-10T15:58:00;9.10;;;4.72;;
43962;SDS011;29622;45.534;9.242;2023-06-10T16:03:03;9.80;;;4.20;;
43962;SDS011;29622;45.534;9.242;2023-06-10T16:08:04;8.68;;;4.93;;
43962;SDS011;29622;45.534;9.242;2023-06-10T16:13:05;8.50;;;4.22;;
43962;SDS011;29622;45.534;9.242;2023-06-10T16:18:05;8.30;;;4.07;;
43962;SDS011;29622;45.534;9.242;2023-06-10T16:23:06;10.23;;;4.07;;
43962;SDS011;29622;45.534;9.242;2023-06-10T16:28:07;8.88;;;4.45;;
43962;SDS011;29622;45.534;9.242;2023-06-10T16:33:08;13.05;;;4.63;;
43962;SDS011;29622;45.534;9.242;2023-06-10T16:38:08;8.93;;;4.72;;
43962;SDS011;29622;45.534;9.242;2023-06-10T16:43:09;8.90;;;4.00;;
43962;SDS011;29622;45.534;9.242;2023-06-10T16:48:10;9.55;;;4.25;;
43962;SDS011;29622;45.534;9.242;2023-06-10T16:53:10;17.75;;;4.30;;
43962;SDS011;29622;45.534;9.242;2023-06-10T16:58:11;10.73;;;4.45;;
43962;SDS011;29622;45.534;9.242;2023-06-10T17:03:12;7.78;;;4.13;;
43962;SDS011;29622;45.534;9.242;2023-06-10T17:08:13;7.45;;;3.67;;
43962;SDS011;29622;45.534;9.242;2023-06-10T17:13:14;9.07;;;3.97;;
43962;SDS011;29622;45.534;9.242;2023-06-10T17:18:15;16.17;;;4.78;;
43962;SDS011;29622;45.534;9.242;2023-06-10T17:23:15;10.30;;;4.53;;
43962;SDS011;29622;45.534;9.242;2023-06-10T17:28:16;6.43;;;4.22;;
43962;SDS011;29622;45.534;9.242;2023-06-10T17:33:17;7.43;;;4.03;;
43962;SDS011;29622;45.534;9.242;2023-06-10T17:38:17;8.40;;;4.00;;
43962;SDS011;29622;45.534;9.242;2023-06-10T17:43:20;10.93;;;4.20;;
43962;SDS011;29622;45.534;9.242;2023-06-10T17:48:20;8.82;;;4.53;;
43962;SDS011;29622;45.534;9.242;2023-06-10T17:53:21;9.70;;;4.47;;
43962;SDS011;29622;45.534;9.242;2023-06-10T17:58:22;7.38;;;4.13;;
43962;SDS011;29622;45.534;9.242;2023-06-10T18:03:23;10.40;;;4.45;;
43962;SDS011;29622;45.534;9.242;2023-06-10T18:08:26;9.68;;;4.30;;
43962;SDS011;29622;45.534;9.242;2023-06-10T18:13:28;7.25;;;3.63;;
43962;SDS011;29622;45.534;9.242;2023-06-10T18:18:29;7.00;;;3.92;;
43962;SDS011;29622;45.534;9.242;2023-06-10T18:23:29;6.93;;;3.85;;
43962;SDS011;29622;45.534;9.242;2023-06-10T18:28:30;10.18;;;4.68;;
43962;SDS011;29622;45.534;9.242;2023-06-10T18:33:31;7.35;;;3.50;;
43962;SDS011;29622;45.534;9.242;2023-06-10T18:38:33;6.63;;;3.88;;
43962;SDS011;29622;45.534;9.242;2023-06-10T18:43:36;9.57;;;4.95;;
43962;SDS011;29622;45.534;9.242;2023-06-10T18:48:37;7.22;;;3.70;;
43962;SDS011;29622;45.534;9.242;2023-06-10T18:53:41;7.45;;;3.60;;
43962;SDS011;29622;45.534;9.242;2023-06-10T18:58:41;6.60;;;3.65;;
43962;SDS011;29622;45.534;9.242;2023-06-10T19:03:46;8.52;;;4.25;;
43962;SDS011;29622;45.534;9.242;2023-06-10T19:08:47;9.43;;;4.10;;
43962;SDS011;29622;45.534;9.242;2023-06-10T19:13:48;6.55;;;3.75;;
43962;SDS011;29622;45.534;9.242;2023-06-10T19:18:49;8.60;;;4.00;;
43962;SDS011;29622;45.534;9.242;2023-06-10T19:23:50;10.25;;;4.18;;
43962;SDS011;29622;45.534;9.242;2023-06-10T19:28:50;9.20;;;4.32;;
43962;SDS011;29622;45.534;9.242;2023-06-10T19:33:52;13.15;;;4.13;;
43962;SDS011;29622;45.534;9.242;2023-06-10T19:38:53;5.88;;;3.45;;
43962;SDS011;29622;45.534;9.242;2023-06-10T19:43:54;7.35;;;3.63;;
43962;SDS011;29622;45.534;9.242;2023-06-10T19:48:55;7.97;;;3.60;;
43962;SDS011;29622;45.534;9.242;2023-06-10T19:53:58;7.07;;;3.08;;
43962;SDS011;29622;45.534;9.242;2023-06-10T19:58:58;10.98;;;4.30;;
43962;SDS011;29622;45.534;9.242;2023-06-10T20:03:59;6.18;;;3.50;;
43962;SDS011;29622;45.534;9.242;2023-06-10T20:09:00;10.38;;;3.17;;
43962;SDS011;29622;45.534;9.242;2023-06-10T20:14:01;7.10;;;3.85;;
43962;SDS011;29622;45.534;9.242;2023-06-10T20:19:01;9.43;;;3.25;;
43962;SDS011;29622;45.534;9.242;2023-06-10T20:24:03;5.93;;;2.97;;
43962;SDS011;29622;45.534;9.242;2023-06-10T20:29:06;7.05;;;3.90;;
43962;SDS011;29622;45.534;9.242;2023-06-10T20:34:06;8.43;;;3.35;;
43962;SDS011;29622;45.534;9.242;2023-06-10T20:39:07;6.53;;;3.40;;
43962;SDS011;29622;45.534;9.242;2023-06-10T20:44:08;5.38;;;3.55;;
43962;SDS011;29622;45.534;9.242;2023-06-10T20:49:08;9.45;;;3.70;;
43962;SDS011;29622;45.534;9.242;2023-06-10T20:54:09;8.23;;;4.63;;
43962;SDS011;29622;45.534;9.242;2023-06-10T20:59:09;7.90;;;3.83;;
43962;SDS011;29622;45.534;9.242;2023-06-10T21:04:10;8.55;;;3.85;;
43962;SDS011;29622;45.534;9.242;2023-06-10T21:09:11;6.13;;;3.28;;
43962;SDS011;29622;45.534;9.242;2023-06-10T21:14:12;9.15;;;4.95;;
43962;SDS011;29622;45.534;9.242;2023-06-10T21:19:12;11.30;;;4.85;;
43962;SDS011;29622;45.534;9.242;2023-06-10T21:24:13;10.52;;;4.50;;
43962;SDS011;29622;45.534;9.242;2023-06-10T21:29:14;11.70;;;5.68;;
43962;SDS011;29622;45.534;9.242;2023-06-10T21:34:14;20.70;;;6.32;;
43962;SDS011;29622;45.534;9.242;2023-06-10T21:39:15;17.98;;;5.32;;
43962;SDS011;29622;45.534;9.242;2023-06-10T21:44:16;13.52;;;5.38;;
43962;SDS011;29622;45.534;9.242;2023-06-10T21:49:16;17.48;;;7.10;;
43962;SDS011;29622;45.534;9.242;2023-06-10T21:54:17;14.02;;;5.20;;
43962;SDS011;29622;45.534;9.242;2023-06-10T21:59:18;15.57;;;5.43;;
43962;SDS011;29622;45.534;9.242;2023-06-10T22:04:21;11.38;;;5.05;;
43962;SDS011;29622;45.534;9.242;2023-06-10T22:09:23;10.43;;;5.20;;
43962;SDS011;29622;45.534;9.242;2023-06-10T22:14:24;10.75;;;5.32;;
43962;SDS011;29622;45.534;9.242;2023-06-10T22:19:24;10.40;;;5.40;;
43962;SDS011;29622;45.534;9.242;2023-06-10T22:24:25;15.13;;;6.03;;
43962;SDS011;29622;45.534;9.242;2023-06-10T22:29:26;11.07;;;6.18;;
43962;SDS011;29622;45.534;9.242;2023-06-10T22:34:27;11.00;;;6.10;;
43962;SDS011;29622;45.534;9.242;2023-06-10T22:39:28;16.67;;;6.20;;
43962;SDS011;29622;45.534;9.242;2023-06-10T22:44:28;10.10;;;5.60;;
43962;SDS011;29622;45.534;9.242;2023-06-10T22:49:29;12.30;;;6.10;;
43962;SDS011;29622;45.534;9.242;2023-06-10T22:54:33;15.32;;;7.93;;
43962;SDS011;29622;45.534;9.242;2023-06-10T22:59:34;14.25;;;6.90;;
43962;SDS011;29622;45.534;9.242;2023-06-10T23:04:35;12.35;;;7.15;;
43962;SDS011;29622;45.534;9.242;2023-06-10T23:09:36;13.85;;;7.78;;
43962;SDS011;29622;45.534;9.242;2023-06-10T23:14:36;16.20;;;8.25;;
43962;SDS011;29622;45.534;9.242;2023-06-10T23:19:37;15.00;;;8.23;;
43962;SDS011;29622;45.534;9.242;2023-06-10T23:24:40;13.13;;;7.28;;
43962;SDS011;29622;45.534;9.242;2023-06-10T23:29:44;13.93;;;7.90;;
43962;SDS011;29622;45.534;9.242;2023-06-10T23:34:45;14.90;;;7.95;;
43962;SDS011;29622;45.534;9.242;2023-06-10T23:39:46;16.17;;;7.35;;
43962;SDS011;29622;45.534;9.242;2023-06-10T23:44:48;17.30;;;6.72;;
43962;SDS011;29622;45.534;9.242;2023-06-10T23:49:48;22.52;;;6.50;;
43962;SDS011;29622;45.534;9.242;2023-06-10T23:54:49;14.25;;;6.03;;
43962;SDS011;29622;45.534;9.242;2023-06-10T23:59:50;11.40;;;5.75;;
